sensor_id;sensor_type;location;lat;lon;timestamp;P1;durP1;ratioP1;P2;durP2;ratioP2
61460;SDS011;47325;50.506;4.472;2022-09-29T00:04:04;7.80;;;4.50;;
61460;SDS011;47325;50.506;4.472;2022-09-29T00:09:47;8.00;;;4.30;;
61460;SDS011;47325;50.506;4.472;2022-09-29T00:15:31;6.90;;;4.60;;
61460;SDS011;47325;50.506;4.472;2022-09-29T00:21:15;7.00;;;4.40;;
61460;SDS011;47325;50.506;4.472;2022-09-29T00:26:58;6.80;;;4.30;;
61460;SDS011;47325;50.506;4.472;2022-09-29T00:32:41;8.20;;;4.70;;
61460;SDS011;47325;50.506;4.472;2022-09-29T00:38:25;7.00;;;4.20;;
61460;SDS011;47325;50.506;4.472;2022-09-29T00:50:05;10.30;;;4.80;;
61460;SDS011;47325;50.506;4.472;2022-09-29T00:55:49;9.00;;;4.30;;
61460;SDS011;47325;50.506;4.472;2022-09-29T01:01:35;7.70;;;4.30;;
61460;SDS011;47325;50.506;4.472;2022-09-29T01:07:20;7.80;;;4.20;;
61460;SDS011;47325;50.506;4.472;2022-09-29T01:13:04;8.80;;;4.40;;
61460;SDS011;47325;50.506;4.472;2022-09-29T01:18:48;7.50;;;4.20;;
61460;SDS011;47325;50.506;4.472;2022-09-29T01:30:40;7.20;;;3.90;;
61460;SDS011;47325;50.506;4.472;2022-09-29T01:36:26;7.00;;;4.10;;
61460;SDS011;47325;50.506;4.472;2022-09-29T01:42:14;7.00;;;3.80;;
61460;SDS011;47325;50.506;4.472;2022-09-29T01:47:59;7.00;;;3.60;;
61460;SDS011;47325;50.506;4.472;2022-09-29T01:53:46;5.50;;;3.60;;
61460;SDS011;47325;50.506;4.472;2022-09-29T01:59:32;7.40;;;3.80;;
61460;SDS011;47325;50.506;4.472;2022-09-29T02:05:18;5.90;;;3.60;;
61460;SDS011;47325;50.506;4.472;2022-09-29T02:11:03;5.70;;;3.40;;
61460;SDS011;47325;50.506;4.472;2022-09-29T02:16:48;7.40;;;3.60;;
61460;SDS011;47325;50.506;4.472;2022-09-29T02:22:34;5.80;;;3.60;;
61460;SDS011;47325;50.506;4.472;2022-09-29T02:28:17;9.40;;;4.60;;
61460;SDS011;47325;50.506;4.472;2022-09-29T02:34:01;9.70;;;3.90;;
61460;SDS011;47325;50.506;4.472;2022-09-29T02:39:47;4.80;;;3.40;;
61460;SDS011;47325;50.506;4.472;2022-09-29T02:45:34;5.70;;;3.40;;
61460;SDS011;47325;50.506;4.472;2022-09-29T02:51:22;6.10;;;3.40;;
61460;SDS011;47325;50.506;4.472;2022-09-29T02:57:11;7.80;;;3.90;;
61460;SDS011;47325;50.506;4.472;2022-09-29T03:02:58;5.40;;;3.60;;
61460;SDS011;47325;50.506;4.472;2022-09-29T03:08:41;5.50;;;3.60;;
61460;SDS011;47325;50.506;4.472;2022-09-29T03:14:24;8.10;;;3.70;;
61460;SDS011;47325;50.506;4.472;2022-09-29T03:20:08;6.00;;;3.90;;
61460;SDS011;47325;50.506;4.472;2022-09-29T03:25:51;8.00;;;4.10;;
61460;SDS011;47325;50.506;4.472;2022-09-29T03:31:36;7.90;;;4.00;;
61460;SDS011;47325;50.506;4.472;2022-09-29T03:37:21;6.80;;;3.90;;
61460;SDS011;47325;50.506;4.472;2022-09-29T03:43:04;9.20;;;4.30;;
61460;SDS011;47325;50.506;4.472;2022-09-29T03:48:48;8.40;;;4.40;;
61460;SDS011;47325;50.506;4.472;2022-09-29T03:54:31;9.10;;;4.30;;
61460;SDS011;47325;50.506;4.472;2022-09-29T04:00:14;7.40;;;4.20;;
61460;SDS011;47325;50.506;4.472;2022-09-29T04:05:57;7.20;;;4.30;;
61460;SDS011;47325;50.506;4.472;2022-09-29T04:11:41;10.20;;;4.90;;
61460;SDS011;47325;50.506;4.472;2022-09-29T04:17:24;8.50;;;4.70;;
61460;SDS011;47325;50.506;4.472;2022-09-29T04:23:08;7.60;;;4.50;;
61460;SDS011;47325;50.506;4.472;2022-09-29T04:28:51;9.40;;;4.60;;
61460;SDS011;47325;50.506;4.472;2022-09-29T04:34:34;8.50;;;4.60;;
61460;SDS011;47325;50.506;4.472;2022-09-29T04:40:17;9.70;;;4.90;;
61460;SDS011;47325;50.506;4.472;2022-09-29T04:46:05;8.30;;;4.20;;
61460;SDS011;47325;50.506;4.472;2022-09-29T04:51:48;8.90;;;4.50;;
61460;SDS011;47325;50.506;4.472;2022-09-29T04:57:32;8.00;;;4.40;;
61460;SDS011;47325;50.506;4.472;2022-09-29T05:03:15;8.30;;;4.20;;
61460;SDS011;47325;50.506;4.472;2022-09-29T05:08:59;5.90;;;3.80;;
61460;SDS011;47325;50.506;4.472;2022-09-29T05:14:43;8.00;;;4.20;;
61460;SDS011;47325;50.506;4.472;2022-09-29T05:20:26;7.90;;;3.90;;
61460;SDS011;47325;50.506;4.472;2022-09-29T05:26:29;7.50;;;4.40;;
61460;SDS011;47325;50.506;4.472;2022-09-29T05:32:14;7.30;;;3.90;;
61460;SDS011;47325;50.506;4.472;2022-09-29T05:37:58;8.20;;;3.80;;
61460;SDS011;47325;50.506;4.472;2022-09-29T05:43:43;6.90;;;4.00;;
61460;SDS011;47325;50.506;4.472;2022-09-29T05:49:26;8.20;;;4.20;;
61460;SDS011;47325;50.506;4.472;2022-09-29T05:55:11;8.80;;;4.30;;
61460;SDS011;47325;50.506;4.472;2022-09-29T06:00:55;7.30;;;3.80;;
61460;SDS011;47325;50.506;4.472;2022-09-29T06:06:38;6.80;;;3.80;;
61460;SDS011;47325;50.506;4.472;2022-09-29T06:12:22;10.30;;;3.90;;
61460;SDS011;47325;50.506;4.472;2022-09-29T06:18:06;7.90;;;4.10;;
61460;SDS011;47325;50.506;4.472;2022-09-29T06:23:49;13.10;;;4.20;;
61460;SDS011;47325;50.506;4.472;2022-09-29T06:29:33;9.60;;;4.20;;
61460;SDS011;47325;50.506;4.472;2022-09-29T06:35:16;8.70;;;4.20;;
61460;SDS011;47325;50.506;4.472;2022-09-29T06:41:00;10.70;;;4.40;;
61460;SDS011;47325;50.506;4.472;2022-09-29T06:46:43;7.40;;;3.70;;
61460;SDS011;47325;50.506;4.472;2022-09-29T06:52:26;14.00;;;4.00;;
61460;SDS011;47325;50.506;4.472;2022-09-29T06:58:12;10.50;;;4.00;;
61460;SDS011;47325;50.506;4.472;2022-09-29T07:03:55;8.90;;;3.60;;
61460;SDS011;47325;50.506;4.472;2022-09-29T07:09:38;7.40;;;3.80;;
61460;SDS011;47325;50.506;4.472;2022-09-29T07:15:22;6.90;;;3.50;;
61460;SDS011;47325;50.506;4.472;2022-09-29T07:21:05;6.90;;;3.60;;
61460;SDS011;47325;50.506;4.472;2022-09-29T07:26:49;8.50;;;3.90;;
61460;SDS011;47325;50.506;4.472;2022-09-29T07:32:32;7.00;;;3.50;;
61460;SDS011;47325;50.506;4.472;2022-09-29T07:38:16;8.30;;;3.60;;
61460;SDS011;47325;50.506;4.472;2022-09-29T07:43:59;5.10;;;3.20;;
61460;SDS011;47325;50.506;4.472;2022-09-29T07:49:42;6.70;;;3.40;;
61460;SDS011;47325;50.506;4.472;2022-09-29T07:55:26;5.50;;;3.10;;
61460;SDS011;47325;50.506;4.472;2022-09-29T08:01:10;6.10;;;3.20;;
61460;SDS011;47325;50.506;4.472;2022-09-29T08:06:55;6.40;;;3.30;;
61460;SDS011;47325;50.506;4.472;2022-09-29T08:12:38;7.50;;;3.30;;
61460;SDS011;47325;50.506;4.472;2022-09-29T08:18:26;7.40;;;3.30;;
61460;SDS011;47325;50.506;4.472;2022-09-29T08:24:11;8.00;;;3.70;;
61460;SDS011;47325;50.506;4.472;2022-09-29T08:29:55;7.00;;;3.30;;
61460;SDS011;47325;50.506;4.472;2022-09-29T08:35:38;4.90;;;3.20;;
61460;SDS011;47325;50.506;4.472;2022-09-29T08:41:27;5.60;;;3.20;;
61460;SDS011;47325;50.506;4.472;2022-09-29T08:47:17;6.20;;;3.00;;
61460;SDS011;47325;50.506;4.472;2022-09-29T08:53:04;5.70;;;3.10;;
61460;SDS011;47325;50.506;4.472;2022-09-29T08:59:06;4.80;;;3.00;;
61460;SDS011;47325;50.506;4.472;2022-09-29T09:05:03;7.40;;;3.10;;
61460;SDS011;47325;50.506;4.472;2022-09-29T09:10:48;5.80;;;3.00;;
61460;SDS011;47325;50.506;4.472;2022-09-29T09:16:36;4.40;;;2.70;;
61460;SDS011;47325;50.506;4.472;2022-09-29T09:22:24;5.30;;;2.60;;
61460;SDS011;47325;50.506;4.472;2022-09-29T09:28:16;5.40;;;2.80;;
61460;SDS011;47325;50.506;4.472;2022-09-29T09:34:00;5.80;;;2.50;;
61460;SDS011;47325;50.506;4.472;2022-09-29T09:39:51;6.00;;;2.60;;
61460;SDS011;47325;50.506;4.472;2022-09-29T09:45:38;4.80;;;2.50;;
61460;SDS011;47325;50.506;4.472;2022-09-29T09:51:29;5.70;;;2.50;;
61460;SDS011;47325;50.506;4.472;2022-09-29T10:03:21;3.80;;;2.20;;
61460;SDS011;47325;50.506;4.472;2022-09-29T10:09:04;6.60;;;2.40;;
61460;SDS011;47325;50.506;4.472;2022-09-29T10:14:48;4.80;;;2.40;;
61460;SDS011;47325;50.506;4.472;2022-09-29T10:20:35;5.40;;;2.60;;
61460;SDS011;47325;50.506;4.472;2022-09-29T10:26:20;4.40;;;2.10;;
61460;SDS011;47325;50.506;4.472;2022-09-29T10:32:07;6.30;;;2.30;;
61460;SDS011;47325;50.506;4.472;2022-09-29T10:37:52;6.20;;;2.30;;
61460;SDS011;47325;50.506;4.472;2022-09-29T10:43:40;5.60;;;2.10;;
61460;SDS011;47325;50.506;4.472;2022-09-29T10:49:24;3.30;;;2.10;;
61460;SDS011;47325;50.506;4.472;2022-09-29T10:55:13;3.90;;;2.10;;
61460;SDS011;47325;50.506;4.472;2022-09-29T11:01:08;4.00;;;2.00;;
61460;SDS011;47325;50.506;4.472;2022-09-29T11:06:53;4.70;;;2.00;;
61460;SDS011;47325;50.506;4.472;2022-09-29T11:12:36;3.40;;;1.80;;
61460;SDS011;47325;50.506;4.472;2022-09-29T11:18:20;5.40;;;1.90;;
61460;SDS011;47325;50.506;4.472;2022-09-29T11:24:05;5.00;;;1.80;;
61460;SDS011;47325;50.506;4.472;2022-09-29T11:29:53;3.70;;;1.90;;
61460;SDS011;47325;50.506;4.472;2022-09-29T11:35:47;2.80;;;1.80;;
61460;SDS011;47325;50.506;4.472;2022-09-29T11:41:46;2.70;;;1.60;;
61460;SDS011;47325;50.506;4.472;2022-09-29T11:53:34;3.30;;;1.70;;
61460;SDS011;47325;50.506;4.472;2022-09-29T12:05:16;2.20;;;1.40;;
61460;SDS011;47325;50.506;4.472;2022-09-29T12:11:02;2.30;;;1.30;;
61460;SDS011;47325;50.506;4.472;2022-09-29T12:17:09;2.30;;;1.30;;
61460;SDS011;47325;50.506;4.472;2022-09-29T12:22:55;2.70;;;1.30;;
61460;SDS011;47325;50.506;4.472;2022-09-29T12:28:41;2.40;;;1.40;;
61460;SDS011;47325;50.506;4.472;2022-09-29T12:34:28;2.20;;;1.30;;
61460;SDS011;47325;50.506;4.472;2022-09-29T12:40:15;3.00;;;1.20;;
61460;SDS011;47325;50.506;4.472;2022-09-29T12:46:02;2.30;;;1.40;;
61460;SDS011;47325;50.506;4.472;2022-09-29T12:51:48;1.40;;;1.10;;
61460;SDS011;47325;50.506;4.472;2022-09-29T12:57:33;2.40;;;1.20;;
61460;SDS011;47325;50.506;4.472;2022-09-29T13:09:18;1.70;;;1.00;;
61460;SDS011;47325;50.506;4.472;2022-09-29T13:15:12;2.70;;;1.10;;
61460;SDS011;47325;50.506;4.472;2022-09-29T13:21:04;2.60;;;1.00;;
61460;SDS011;47325;50.506;4.472;2022-09-29T13:26:57;1.80;;;0.90;;
61460;SDS011;47325;50.506;4.472;2022-09-29T13:32:44;1.90;;;1.10;;
61460;SDS011;47325;50.506;4.472;2022-09-29T13:38:28;2.20;;;1.20;;
61460;SDS011;47325;50.506;4.472;2022-09-29T13:44:24;2.60;;;1.10;;
61460;SDS011;47325;50.506;4.472;2022-09-29T13:56:13;3.20;;;0.90;;
61460;SDS011;47325;50.506;4.472;2022-09-29T14:01:58;2.00;;;1.00;;
61460;SDS011;47325;50.506;4.472;2022-09-29T14:07:43;1.80;;;1.00;;
61460;SDS011;47325;50.506;4.472;2022-09-29T14:13:28;1.80;;;1.00;;
61460;SDS011;47325;50.506;4.472;2022-09-29T14:19:20;1.90;;;1.00;;
61460;SDS011;47325;50.506;4.472;2022-09-29T14:31:02;1.40;;;1.00;;
61460;SDS011;47325;50.506;4.472;2022-09-29T14:36:46;2.40;;;1.10;;
61460;SDS011;47325;50.506;4.472;2022-09-29T14:42:30;2.10;;;1.00;;
61460;SDS011;47325;50.506;4.472;2022-09-29T14:48:15;1.90;;;0.90;;
61460;SDS011;47325;50.506;4.472;2022-09-29T14:54:03;2.50;;;1.10;;
61460;SDS011;47325;50.506;4.472;2022-09-29T14:59:52;2.00;;;1.30;;
61460;SDS011;47325;50.506;4.472;2022-09-29T15:05:40;3.20;;;1.20;;
61460;SDS011;47325;50.506;4.472;2022-09-29T15:11:28;2.30;;;1.00;;
61460;SDS011;47325;50.506;4.472;2022-09-29T15:17:16;2.80;;;1.20;;
61460;SDS011;47325;50.506;4.472;2022-09-29T15:23:25;1.80;;;1.10;;
61460;SDS011;47325;50.506;4.472;2022-09-29T15:29:09;2.30;;;1.20;;
61460;SDS011;47325;50.506;4.472;2022-09-29T15:35:03;3.20;;;1.10;;
61460;SDS011;47325;50.506;4.472;2022-09-29T15:40:46;2.20;;;1.20;;
61460;SDS011;47325;50.506;4.472;2022-09-29T15:46:37;2.70;;;1.10;;
61460;SDS011;47325;50.506;4.472;2022-09-29T15:52:22;2.90;;;1.00;;
61460;SDS011;47325;50.506;4.472;2022-09-29T15:58:05;2.10;;;1.10;;
61460;SDS011;47325;50.506;4.472;2022-09-29T16:03:55;4.30;;;1.30;;
61460;SDS011;47325;50.506;4.472;2022-09-29T16:09:39;4.70;;;1.70;;
61460;SDS011;47325;50.506;4.472;2022-09-29T16:15:25;6.40;;;2.40;;
61460;SDS011;47325;50.506;4.472;2022-09-29T16:21:11;5.60;;;1.80;;
61460;SDS011;47325;50.506;4.472;2022-09-29T16:26:56;8.20;;;2.00;;
61460;SDS011;47325;50.506;4.472;2022-09-29T16:32:39;6.20;;;2.20;;
61460;SDS011;47325;50.506;4.472;2022-09-29T16:38:30;5.00;;;2.00;;
61460;SDS011;47325;50.506;4.472;2022-09-29T16:44:15;5.70;;;2.40;;
61460;SDS011;47325;50.506;4.472;2022-09-29T16:50:01;10.20;;;5.50;;
61460;SDS011;47325;50.506;4.472;2022-09-29T16:55:45;12.90;;;7.70;;
61460;SDS011;47325;50.506;4.472;2022-09-29T17:01:33;14.70;;;8.90;;
61460;SDS011;47325;50.506;4.472;2022-09-29T17:07:17;10.70;;;6.40;;
61460;SDS011;47325;50.506;4.472;2022-09-29T17:13:01;7.90;;;5.00;;
61460;SDS011;47325;50.506;4.472;2022-09-29T17:18:44;8.00;;;4.50;;
61460;SDS011;47325;50.506;4.472;2022-09-29T17:24:27;7.60;;;3.90;;
61460;SDS011;47325;50.506;4.472;2022-09-29T17:30:11;6.60;;;3.10;;
61460;SDS011;47325;50.506;4.472;2022-09-29T17:35:55;6.50;;;3.10;;
61460;SDS011;47325;50.506;4.472;2022-09-29T17:41:38;5.10;;;2.80;;
61460;SDS011;47325;50.506;4.472;2022-09-29T17:47:27;5.60;;;2.60;;
61460;SDS011;47325;50.506;4.472;2022-09-29T17:53:18;7.70;;;2.80;;
61460;SDS011;47325;50.506;4.472;2022-09-29T17:59:01;4.40;;;2.70;;
61460;SDS011;47325;50.506;4.472;2022-09-29T18:04:45;4.60;;;2.40;;
61460;SDS011;47325;50.506;4.472;2022-09-29T18:10:28;5.10;;;2.40;;
61460;SDS011;47325;50.506;4.472;2022-09-29T18:16:13;5.50;;;2.40;;
61460;SDS011;47325;50.506;4.472;2022-09-29T18:21:57;3.60;;;2.30;;
61460;SDS011;47325;50.506;4.472;2022-09-29T18:27:40;4.10;;;2.50;;
61460;SDS011;47325;50.506;4.472;2022-09-29T18:33:23;3.60;;;2.00;;
61460;SDS011;47325;50.506;4.472;2022-09-29T18:39:07;4.10;;;1.90;;
61460;SDS011;47325;50.506;4.472;2022-09-29T18:44:51;4.70;;;2.40;;
61460;SDS011;47325;50.506;4.472;2022-09-29T18:50:36;6.00;;;3.00;;
61460;SDS011;47325;50.506;4.472;2022-09-29T18:56:20;5.80;;;2.70;;
61460;SDS011;47325;50.506;4.472;2022-09-29T19:02:03;3.40;;;2.60;;
61460;SDS011;47325;50.506;4.472;2022-09-29T19:07:47;4.40;;;2.50;;
61460;SDS011;47325;50.506;4.472;2022-09-29T19:13:31;3.70;;;2.40;;
61460;SDS011;47325;50.506;4.472;2022-09-29T19:19:14;4.80;;;2.30;;
61460;SDS011;47325;50.506;4.472;2022-09-29T19:24:57;4.20;;;2.10;;
61460;SDS011;47325;50.506;4.472;2022-09-29T19:30:41;4.60;;;2.20;;
61460;SDS011;47325;50.506;4.472;2022-09-29T19:36:24;7.20;;;2.40;;
61460;SDS011;47325;50.506;4.472;2022-09-29T19:42:07;3.90;;;2.10;;
61460;SDS011;47325;50.506;4.472;2022-09-29T19:47:51;4.50;;;2.40;;
61460;SDS011;47325;50.506;4.472;2022-09-29T19:53:34;4.80;;;2.40;;
61460;SDS011;47325;50.506;4.472;2022-09-29T19:59:18;5.10;;;2.50;;
61460;SDS011;47325;50.506;4.472;2022-09-29T20:05:03;5.90;;;2.40;;
61460;SDS011;47325;50.506;4.472;2022-09-29T20:10:47;4.20;;;2.50;;
61460;SDS011;47325;50.506;4.472;2022-09-29T20:16:31;4.10;;;2.30;;
61460;SDS011;47325;50.506;4.472;2022-09-29T20:22:15;5.20;;;2.50;;
61460;SDS011;47325;50.506;4.472;2022-09-29T20:28:00;3.00;;;2.30;;
61460;SDS011;47325;50.506;4.472;2022-09-29T20:33:46;4.50;;;2.50;;
61460;SDS011;47325;50.506;4.472;2022-09-29T20:39:29;3.20;;;2.50;;
61460;SDS011;47325;50.506;4.472;2022-09-29T20:45:13;4.50;;;2.50;;
61460;SDS011;47325;50.506;4.472;2022-09-29T20:50:57;3.50;;;2.70;;
61460;SDS011;47325;50.506;4.472;2022-09-29T20:56:41;5.70;;;3.00;;
61460;SDS011;47325;50.506;4.472;2022-09-29T21:02:25;4.20;;;2.80;;
61460;SDS011;47325;50.506;4.472;2022-09-29T21:08:09;4.20;;;2.70;;
61460;SDS011;47325;50.506;4.472;2022-09-29T21:13:53;5.20;;;2.90;;
61460;SDS011;47325;50.506;4.472;2022-09-29T21:19:36;4.20;;;2.80;;
61460;SDS011;47325;50.506;4.472;2022-09-29T21:25:19;3.70;;;2.90;;
61460;SDS011;47325;50.506;4.472;2022-09-29T21:31:03;5.20;;;3.00;;
61460;SDS011;47325;50.506;4.472;2022-09-29T21:36:47;5.60;;;3.00;;
61460;SDS011;47325;50.506;4.472;2022-09-29T21:42:30;5.40;;;3.00;;
61460;SDS011;47325;50.506;4.472;2022-09-29T21:48:14;8.60;;;3.30;;
61460;SDS011;47325;50.506;4.472;2022-09-29T21:53:57;6.00;;;3.00;;
61460;SDS011;47325;50.506;4.472;2022-09-29T21:59:40;6.70;;;3.50;;
61460;SDS011;47325;50.506;4.472;2022-09-29T22:05:24;5.80;;;3.70;;
61460;SDS011;47325;50.506;4.472;2022-09-29T22:11:08;6.60;;;3.70;;
61460;SDS011;47325;50.506;4.472;2022-09-29T22:16:51;7.00;;;3.80;;
61460;SDS011;47325;50.506;4.472;2022-09-29T22:22:35;6.20;;;4.20;;
61460;SDS011;47325;50.506;4.472;2022-09-29T22:28:19;7.60;;;4.20;;
61460;SDS011;47325;50.506;4.472;2022-09-29T22:34:02;6.60;;;4.30;;
61460;SDS011;47325;50.506;4.472;2022-09-29T22:39:46;7.50;;;4.40;;
61460;SDS011;47325;50.506;4.472;2022-09-29T22:45:30;6.30;;;4.30;;
61460;SDS011;47325;50.506;4.472;2022-09-29T22:51:13;6.90;;;4.50;;
61460;SDS011;47325;50.506;4.472;2022-09-29T22:56:57;7.10;;;5.00;;
61460;SDS011;47325;50.506;4.472;2022-09-29T23:02:40;8.30;;;4.70;;
61460;SDS011;47325;50.506;4.472;2022-09-29T23:08:23;6.40;;;4.80;;
61460;SDS011;47325;50.506;4.472;2022-09-29T23:14:06;7.60;;;4.70;;
61460;SDS011;47325;50.506;4.472;2022-09-29T23:19:50;7.00;;;4.50;;
61460;SDS011;47325;50.506;4.472;2022-09-29T23:25:33;6.40;;;4.50;;
61460;SDS011;47325;50.506;4.472;2022-09-29T23:31:16;8.80;;;4.80;;
61460;SDS011;47325;50.506;4.472;2022-09-29T23:37:00;8.70;;;4.80;;
61460;SDS011;47325;50.506;4.472;2022-09-29T23:42:43;8.50;;;4.40;;
61460;SDS011;47325;50.506;4.472;2022-09-29T23:48:26;7.00;;;4.40;;
61460;SDS011;47325;50.506;4.472;2022-09-29T23:54:10;6.80;;;4.70;;
61460;SDS011;47325;50.506;4.472;2022-09-29T23:59:54;7.80;;;4.30;;
